Aérodrome :
LOGIN :

S'inscrire | Disclaimer

   EN    FR    IT 

 










Légende :    VFR   VFR Marginal   IFR   IFR Intensif   IFR Très Intensif
Visi : 
Plafond : 
>= 8 km
>= 3000ft
5 à 8 km
1000 à 3000 ft
1500m à 5 km
500 à 1000 ft
800 à 1500m
200 à 500 ft
< 800m
< 200 ft
Symboles :   Orages  Brouillard  Fortes neiges  Fortes précipitations  Vent > 20 kt
SIGMETs :   Divers  Orages  Givrage  Turbulence  Onde Orograph.  Cendres Volcan.







- Altitude de l'aérodrome : 1213 ft
- Code IATA : SCQ


LEST - Santiago de Compostela

DERNIER METAR :
  • 201830Z 36006KT 9999 FEW016 FEW018TCU SCT022 BKN042 07/06 Q1023 TEMPO 3000 RA BKN010

METARs EXPIRÉS :
  • 201800Z 01006KT 330V050 9999 -DZ FEW016 FEW018TCU SCT028 07/06 Q1022 TEMPO 3000 RA BKN010
  • 201730Z 36007KT 9999 FEW016 FEW018TCU 07/06 Q1022 TEMPO 3000 RA BKN010
  • 201700Z 35008KT 320V020 9999 FEW014 FEW018TCU 08/07 Q1022 TEMPO 3000 RA BKN010
  • 201630Z 35009KT 320V020 9999 FEW016 FEW018TCU 08/07 Q1021 TEMPO 3000 RA BKN010
  • 201600Z 36008KT 330V040 9999 FEW014 FEW018TCU SCT036 BKN040 08/07 Q1021 TEMPO 3000 RA BKN010

TAF TAF LEST
Valide du 20 à 18h jusqu'au 21 à 18h UTC


201700Z 2018/2118 01009KT 9999 FEW025 SCT040 TX12/2114Z TN05/2106Z
PROB30
TEMPO 2018/2024 3000 SHRA BKN012 SCT025TCU
PROB40
TEMPO 2100/2108 3000 BR BKN010
PROB30
TEMPO 2100/2108 0800 BCFG BKN002 BKN005
Pas de NOTAMs connus pour ce terrain.
1 SIGMET publié pour la FIR Madrid (LECM) :
 
Onde orographique forte
LECM SIGMET 2 VALID 201613/202000 LEVA
LECM MADRID FIR/UIR SEV MTW OBS AT 1613Z WI N3704 W00503 - N3632 W00430 - N3716 W00142 - N3838 W00240 - N3704 W00503 SFC/FL260 STNR NC=



MET'MAP, la Météo Aéronautique d'un coup d'oeil ! - Copyright ORBIFLY Décembre 2007 - Disclaimer

ORBIFLY MET'MAP TEAM :

Programmation & Développement : Alexandra Zaïnal
Conception & Développement : Baudouin d'Aumeries
Co-Programmation & Développement : Marc-Olivier Méhu
Soutien technique & logistique : Manuel Goepfert

Contact : metmap@orbifly.com




SOURCES & CREDITS :

   NOAA